Time;durP1;ratioP1;P1;durP2;ratioP2;P2;SDS_P1;SDS_P2;PMS_P1;PMS_P2;Temp;Humidity;BMP_temperature;BMP_pressure;BME280_temperature;BME280_humidity;BME280_pressure;Samples;Min_cycle;Max_cycle;Signal;HPM_P1;HPM_P2
2022/08/11 00:00:33;;;;;;;7.32;4.63;;;;;;;19.10;61.51;102205.63;6269569;22;20008;-86
2022/08/11 00:03:04;;;;;;;7.03;4.60;;;;;;;19.05;62.35;102194.41;6270846;22;20000;-85
2022/08/11 00:05:30;;;;;;;5.53;4.68;;;;;;;19.12;59.95;102209.91;6272507;22;20031;-86
2022/08/11 00:07:57;;;;;;;8.95;4.82;;;;;;;19.06;62.06;102201.38;6269627;22;20006;-86
2022/08/11 00:10:25;;;;;;;6.63;4.47;;;;;;;19.07;62.88;102209.22;6272772;22;20432;-86
2022/08/11 00:12:55;;;;;;;7.45;4.22;;;;;;;19.01;62.51;102205.97;6271492;22;21383;-86
2022/08/11 00:15:21;;;;;;;9.52;4.75;;;;;;;18.98;62.60;102200.81;6270900;22;20027;-86
2022/08/11 00:17:49;;;;;;;7.07;4.28;;;;;;;18.89;63.41;102210.78;6272614;22;20027;-86
2022/08/11 00:20:16;;;;;;;6.32;4.32;;;;;;;18.83;63.47;102203.09;6271062;22;20003;-86
2022/08/11 00:22:44;;;;;;;7.40;4.63;;;;;;;18.79;61.51;102204.13;6271596;22;20011;-86
2022/08/11 00:25:15;;;;;;;7.90;4.40;;;;;;;18.76;64.08;102204.25;6272565;22;19996;-86
2022/08/11 00:27:42;;;;;;;6.25;4.40;;;;;;;18.75;62.61;102207.78;6272137;22;20076;-86
2022/08/11 00:30:09;;;;;;;6.93;4.40;;;;;;;18.76;63.20;102206.88;6270689;22;20000;-86
2022/08/11 00:32:37;;;;;;;9.00;5.15;;;;;;;18.76;62.92;102208.66;6272075;22;20075;-85
2022/08/11 00:35:07;;;;;;;7.97;4.80;;;;;;;18.78;61.58;102196.28;6271329;22;20488;-86
2022/08/11 00:37:33;;;;;;;7.28;5.00;;;;;;;18.87;60.88;102204.72;6271614;22;20004;-86
2022/08/11 00:40:02;;;;;;;8.48;5.38;;;;;;;18.86;60.97;102199.50;6271510;22;20082;-86
2022/08/11 00:42:44;;;;;;;8.88;5.05;;;;;;;18.92;61.04;102205.38;6271439;22;20046;-86
2022/08/11 00:45:23;;;;;;;6.75;4.03;;;;;;;18.97;58.96;102196.50;6271508;22;20444;-86
2022/08/11 00:48:01;;;;;;;6.47;4.30;;;;;;;18.96;60.76;102203.53;6272578;22;20026;-86
2022/08/11 00:50:48;;;;;;;6.53;4.68;;;;;;;18.98;59.18;102193.78;6270926;22;20433;-86
2022/08/11 00:53:37;;;;;;;7.75;4.53;;;;;;;18.96;60.63;102194.78;6271077;22;20004;-85
2022/08/11 00:56:03;;;;;;;6.90;4.10;;;;;;;18.91;60.86;102198.41;6245659;22;20011;-86
2022/08/11 00:59:15;;;;;;;6.80;4.13;;;;;;;18.92;61.41;102196.66;6272509;22;19999;-86
2022/08/11 01:01:56;;;;;;;5.40;4.00;;;;;;;18.85;61.68;102193.38;6273789;22;20014;-86
2022/08/11 01:04:48;;;;;;;6.45;4.28;;;;;;;18.81;60.59;102191.78;6272875;22;20091;-86
2022/08/11 01:07:50;;;;;;;6.20;4.50;;;;;;;18.79;60.09;102198.88;6266797;22;20008;-86
2022/08/11 01:10:57;;;;;;;8.32;4.82;;;;;;;18.76;61.21;102198.13;6274363;22;19999;-86
2022/08/11 01:14:05;;;;;;;6.43;4.93;;;;;;;18.75;59.89;102196.41;6273027;22;20022;-85
2022/08/11 01:16:59;;;;;;;4.82;4.30;;;;;;;18.72;60.84;102189.50;6273916;22;20004;-86
2022/08/11 01:19:47;;;;;;;9.15;4.60;;;;;;;18.74;59.38;102194.69;6272979;22;20004;-85
2022/08/11 01:22:58;;;;;;;10.27;4.72;;;;;;;18.76;59.26;102199.00;6201703;22;20083;-85
2022/08/11 01:26:01;;;;;;;7.30;4.47;;;;;;;18.74;60.38;102202.56;6274070;22;20000;-86
2022/08/11 01:29:06;;;;;;;6.68;4.55;;;;;;;18.72;59.30;102196.50;6272974;22;20019;-86
2022/08/11 01:31:56;;;;;;;6.80;4.75;;;;;;;18.67;60.59;102204.56;6273451;22;20037;-86
2022/08/11 01:35:16;;;;;;;7.22;4.72;;;;;;;18.63;60.20;102205.56;6246108;22;20007;-86
2022/08/11 01:38:19;;;;;;;6.65;4.65;;;;;;;18.65;60.81;102201.13;6273150;22;20003;-86
2022/08/11 01:41:09;;;;;;;7.68;4.68;;;;;;;18.68;61.13;102200.16;6272863;22;20046;-80
2022/08/11 01:46:49;;;;;;;7.97;4.50;;;;;;;18.64;59.77;102207.28;6274257;22;20514;-80
2022/08/11 01:49:24;;;;;;;7.70;4.75;;;;;;;18.56;62.51;102198.81;6272494;22;20042;-80
2022/08/11 01:52:19;;;;;;;6.88;4.22;;;;;;;18.52;61.69;102198.03;6245811;22;20344;-80
2022/08/11 01:55:13;;;;;;;8.07;5.00;;;;;;;18.44;62.57;102202.69;6270797;22;20475;-80
2022/08/11 01:57:46;;;;;;;10.07;4.47;;;;;;;18.35;61.21;102189.06;6272457;22;20049;-80
2022/08/11 02:00:18;;;;;;;6.50;4.50;;;;;;;18.32;61.63;102202.28;6271313;22;20004;-80
2022/08/11 02:03:05;;;;;;;5.95;4.50;;;;;;;18.28;63.44;102198.91;6272180;22;20234;-80
2022/08/11 02:05:49;;;;;;;6.70;4.45;;;;;;;18.21;63.60;102200.03;6273260;22;20004;-80
2022/08/11 02:08:53;;;;;;;8.85;4.85;;;;;;;18.14;63.85;102201.13;6245570;22;20023;-86
2022/08/11 02:11:35;;;;;;;7.43;4.93;;;;;;;18.05;64.95;102199.66;6272955;22;20008;-86
2022/08/11 02:14:11;;;;;;;6.63;4.70;;;;;;;17.98;64.94;102202.53;6273575;22;20015;-86
2022/08/11 02:16:49;;;;;;;8.18;5.05;;;;;;;17.91;65.86;102195.78;6272282;22;20000;-86
2022/08/11 02:25:03;;;;;;;8.35;5.13;;;;;;;17.72;66.68;102198.16;6272938;22;20059;-85
2022/08/11 02:27:43;;;;;;;8.70;5.20;;;;;;;17.72;66.04;102206.00;6272672;22;20000;-86
2022/08/11 02:30:15;;;;;;;8.77;5.47;;;;;;;17.64;66.91;102202.75;6245492;22;20003;-86
2022/08/11 02:33:22;;;;;;;7.53;5.30;;;;;;;17.59;66.40;102200.25;6273413;22;20563;-86
2022/08/11 02:36:02;;;;;;;8.30;5.05;;;;;;;17.54;67.06;102198.66;6272450;22;20004;-86
2022/08/11 02:38:42;;;;;;;7.05;5.25;;;;;;;17.48;68.12;102194.47;6271138;22;20074;-86
2022/08/11 02:44:59;;;;;;;6.70;5.13;;;;;;;17.44;66.52;102197.25;6273473;22;20102;-86
2022/08/11 02:47:37;;;;;;;8.18;5.38;;;;;;;17.34;67.71;102194.88;6273268;22;20004;-86
2022/08/11 02:50:14;;;;;;;9.32;5.40;;;;;;;17.27;67.52;102193.34;6272827;22;20000;-87
2022/08/11 02:52:57;;;;;;;8.20;5.50;;;;;;;17.25;68.64;102194.34;6272409;22;20429;-86
2022/08/11 02:55:36;;;;;;;8.25;5.28;;;;;;;17.17;67.67;102197.16;6271771;22;20000;-87
2022/08/11 02:58:20;;;;;;;9.63;5.60;;;;;;;17.12;67.89;102199.06;6272550;22;20003;-85
2022/08/11 03:00:53;;;;;;;8.63;5.78;;;;;;;17.08;68.91;102197.44;6270998;22;20007;-86
2022/08/11 03:04:09;;;;;;;8.25;5.88;;;;;;;17.07;67.29;102197.47;6272595;22;20413;-86
2022/08/11 03:06:47;;;;;;;7.53;5.38;;;;;;;16.96;69.41;102193.41;6118815;23;20455;-86
2022/08/11 03:09:37;;;;;;;10.90;6.30;;;;;;;16.96;68.64;102197.78;6241370;22;20049;-80
2022/08/11 03:18:23;;;;;;;7.72;6.00;;;;;;;16.79;69.12;102206.09;6270292;22;20062;-80
2022/08/11 03:21:10;;;;;;;10.90;6.22;;;;;;;16.73;69.28;102205.41;6270295;22;20006;-80
2022/08/11 03:24:06;;;;;;;8.02;5.88;;;;;;;16.69;69.30;102195.94;6272366;22;20066;-80
2022/08/11 03:26:41;;;;;;;9.52;6.68;;;;;;;16.59;70.65;102193.53;6245023;22;20340;-80
2022/08/11 03:29:21;;;;;;;9.45;6.68;;;;;;;16.55;70.36;102193.66;6272306;22;20014;-80
2022/08/11 03:31:59;;;;;;;9.05;6.50;;;;;;;16.51;70.82;102198.09;6245551;22;19999;-80
2022/08/11 03:34:25;;;;;;;10.60;6.63;;;;;;;16.46;71.36;102194.75;6244965;22;20340;-80
2022/08/11 03:37:47;;;;;;;9.98;6.55;;;;;;;16.51;70.41;102205.13;6272806;22;20018;-80
2022/08/11 03:43:25;;;;;;;10.30;6.65;;;;;;;16.40;70.92;102184.47;6194765;22;20019;-80
2022/08/11 03:46:11;;;;;;;11.07;6.80;;;;;;;16.40;70.56;102196.69;6271509;22;20034;-80
2022/08/11 03:48:42;;;;;;;8.63;6.78;;;;;;;16.32;72.20;102189.03;6272224;22;20315;-80
2022/08/11 03:51:28;;;;;;;9.85;6.90;;;;;;;16.33;71.37;102188.13;6272350;22;19999;-80
2022/08/11 03:54:18;;;;;;;9.90;6.70;;;;;;;16.32;71.69;102190.78;6271590;22;19996;-80
2022/08/11 03:57:02;;;;;;;11.40;7.00;;;;;;;16.29;71.24;102190.88;6271903;22;20380;-80
2022/08/11 04:00:01;;;;;;;12.50;7.30;;;;;;;16.25;71.32;102187.47;6270590;22;20003;-80
2022/08/11 04:02:48;;;;;;;12.20;7.03;;;;;;;16.22;71.63;102189.31;6244519;22;20323;-80
2022/08/11 04:05:38;;;;;;;13.52;7.38;;;;;;;16.17;72.72;102192.06;6272044;22;20475;-80
2022/08/11 04:08:45;;;;;;;14.93;7.28;;;;;;;16.15;72.11;102191.22;6271225;22;20087;-80
2022/08/11 04:11:38;;;;;;;11.60;7.10;;;;;;;16.14;71.58;102194.75;6271670;22;20486;-80
2022/08/11 04:17:53;;;;;;;10.77;6.75;;;;;;;16.05;72.87;102185.34;6271766;22;20392;-80
2022/08/11 04:20:45;;;;;;;10.80;7.20;;;;;;;16.02;73.18;102188.06;6269728;22;20007;-80
2022/08/11 04:23:31;;;;;;;11.10;7.22;;;;;;;15.98;73.14;102185.53;6271312;22;20003;-80
2022/08/11 04:26:24;;;;;;;10.98;7.68;;;;;;;15.96;72.78;102190.84;6272577;22;20027;-80
2022/08/11 04:29:02;;;;;;;11.18;7.40;;;;;;;15.94;74.13;102195.22;6271273;22;20436;-80
2022/08/11 04:31:37;;;;;;;12.38;7.70;;;;;;;15.89;73.73;102193.63;6272058;22;20003;-80
2022/08/11 04:34:26;;;;;;;9.63;7.00;;;;;;;15.91;73.15;102186.59;6271170;22;20082;-80
2022/08/11 04:37:33;;;;;;;12.63;7.72;;;;;;;15.88;73.82;102191.91;6244206;22;20662;-80
2022/08/11 04:40:11;;;;;;;10.77;7.18;;;;;;;15.85;74.46;102194.59;6243950;22;20571;-80
2022/08/11 04:43:22;;;;;;;11.25;7.85;;;;;;;15.85;74.67;102189.34;6270343;22;20016;-80
2022/08/11 04:46:21;;;;;;;11.52;7.28;;;;;;;15.89;74.75;102189.25;6272120;22;20000;-80
2022/08/11 05:01:41;;;;;;;13.93;8.27;;;;;;;16.06;75.54;102188.84;6267810;22;20026;-80
2022/08/11 05:07:27;;;;;;;14.48;8.95;;;;;;;16.09;76.50;102197.47;6209115;22;20026;-80
2022/08/11 05:10:18;;;;;;;16.08;8.82;;;;;;;16.10;76.45;102195.72;6270706;22;20072;-80
2022/08/11 05:27:09;;;;;;;18.73;9.50;;;;;;;16.12;75.61;102186.06;6271815;22;20007;-80
2022/08/11 05:36:07;;;;;;;19.00;11.65;;;;;;;16.39;77.77;102194.97;6268973;22;20395;-86
2022/08/11 05:58:04;;;;;;;15.07;11.07;;;;;;;16.79;76.88;102200.00;6272774;22;20767;-80
2022/08/11 06:00:31;;;;;;;17.50;11.65;;;;;;;16.86;75.37;102206.78;6273622;22;20007;-80
2022/08/11 06:03:02;;;;;;;17.50;11.25;;;;;;;16.87;76.68;102200.66;6274314;22;19999;-80
2022/08/11 06:05:36;;;;;;;16.77;10.98;;;;;;;16.95;74.32;102199.53;6274143;22;20000;-80
2022/08/11 06:08:04;;;;;;;17.23;11.48;;;;;;;17.04;73.13;102206.28;6273240;22;20007;-80
2022/08/11 06:10:35;;;;;;;17.15;11.68;;;;;;;17.12;73.57;102200.84;6246176;22;20003;-80
2022/08/11 06:13:01;;;;;;;14.85;11.80;;;;;;;17.18;74.02;102205.91;6274203;22;20030;-80
2022/08/11 06:15:30;;;;;;;17.17;12.57;;;;;;;17.29;74.36;102206.44;6273427;22;20061;-80
2022/08/11 06:17:57;;;;;;;19.83;12.05;;;;;;;17.42;72.59;102206.91;6245409;22;20003;-81
2022/08/11 06:20:24;;;;;;;18.30;11.80;;;;;;;17.54;70.37;102217.00;6273244;22;20090;-86
2022/08/11 06:23:02;;;;;;;18.23;11.82;;;;;;;17.67;70.73;102213.16;6273498;22;20353;-86
2022/08/11 06:25:35;;;;;;;17.08;11.45;;;;;;;17.80;70.09;102211.88;6272328;22;20010;-86
2022/08/11 06:28:06;;;;;;;18.63;12.38;;;;;;;17.88;73.58;102211.63;6273657;22;20452;-86
2022/08/11 06:30:40;;;;;;;22.55;12.05;;;;;;;17.94;72.81;102208.81;6246605;22;20011;-86
2022/08/11 06:33:09;;;;;;;20.63;12.15;;;;;;;17.96;74.29;102218.31;6273746;22;20004;-86
2022/08/11 06:35:50;;;;;;;19.40;12.07;;;;;;;18.05;69.98;102209.31;6245940;22;20011;-87
2022/08/11 06:38:19;;;;;;;19.13;12.18;;;;;;;18.16;69.44;102202.78;6273238;22;19999;-87
2022/08/11 06:43:58;;;;;;;21.05;11.93;;;;;;;18.24;70.28;102204.28;6272103;22;20023;-86
2022/08/11 06:46:28;;;;;;;21.33;11.95;;;;;;;18.38;71.38;102212.56;6273424;22;20010;-86
2022/08/11 06:48:55;;;;;;;17.92;11.48;;;;;;;18.45;72.29;102211.44;6246484;22;20017;-81
2022/08/11 06:51:21;;;;;;;15.98;10.43;;;;;;;18.50;71.04;102212.13;6272906;22;20035;-80
2022/08/11 06:54:00;;;;;;;17.30;11.07;;;;;;;18.57;68.48;102207.56;6273141;22;19995;-81
2022/08/11 07:02:04;;;;;;;16.58;9.90;;;;;;;18.95;67.95;102214.94;6273695;22;20022;-81
2022/08/11 07:04:38;;;;;;;16.52;9.68;;;;;;;19.05;65.73;102210.19;6272028;22;20046;-81
2022/08/11 07:16:28;;;;;;;14.52;9.10;;;;;;;19.52;69.80;102204.00;6273231;22;20082;-81
2022/08/11 07:30:39;;;;;;;14.43;8.43;;;;;;;20.04;66.17;102205.41;6272593;22;20083;-81
2022/08/11 07:33:05;;;;;;;14.75;9.10;;;;;;;20.10;64.99;102204.28;6271692;22;20004;-81
2022/08/11 07:35:35;;;;;;;13.05;9.02;;;;;;;20.19;64.80;102206.56;6245261;22;20008;-80
2022/08/11 07:38:04;;;;;;;13.02;8.68;;;;;;;20.27;66.46;102208.84;6272683;22;20000;-81
2022/08/11 07:40:31;;;;;;;13.40;8.82;;;;;;;20.37;64.19;102211.06;6272533;22;19999;-81
2022/08/11 07:42:58;;;;;;;19.05;10.00;;;;;;;20.45;63.43;102211.59;6272956;22;20361;-81
2022/08/11 07:53:41;;;;;;;14.38;8.93;;;;;;;21.09;63.85;102214.00;6273182;22;20046;-81
2022/08/11 07:56:07;;;;;;;16.83;9.45;;;;;;;21.38;60.92;102215.31;6272226;22;20333;-81
2022/08/11 08:18:00;;;;;;;12.70;8.93;;;;;;;26.25;50.35;102210.31;6272528;22;20018;-82
2022/08/11 08:20:33;;;;;;;12.10;8.55;;;;;;;26.63;50.32;102205.00;6272824;22;20441;-81
2022/08/11 08:23:00;;;;;;;13.05;8.05;;;;;;;27.01;46.93;102206.84;6272767;22;20013;-82
2022/08/11 08:25:29;;;;;;;12.73;8.07;;;;;;;27.31;45.93;102207.28;6272180;22;20637;-82
2022/08/11 08:27:56;;;;;;;10.93;7.90;;;;;;;27.60;47.01;102197.19;6271834;22;20006;-81
2022/08/11 08:33:07;;;;;;;13.25;7.75;;;;;;;27.99;45.78;102198.69;6269705;22;20015;-87
2022/08/11 08:35:35;;;;;;;10.98;7.90;;;;;;;27.99;40.99;102203.16;6272788;22;20000;-87
2022/08/11 08:38:01;;;;;;;10.60;7.00;;;;;;;27.92;42.94;102195.63;6272709;22;20011;-87
2022/08/11 08:40:27;;;;;;;11.38;6.90;;;;;;;27.95;43.42;102193.72;6272314;22;20003;-87
2022/08/11 08:42:57;;;;;;;8.05;6.43;;;;;;;27.97;44.29;102200.63;6245059;22;20043;-87
2022/08/11 08:45:24;;;;;;;14.43;7.70;;;;;;;28.07;40.09;102200.78;6242678;22;20014;-87
2022/08/11 08:48:13;;;;;;;9.13;6.88;;;;;;;28.17;44.08;102201.81;6271257;22;20319;-87
2022/08/11 08:53:34;;;;;;;12.50;7.25;;;;;;;28.16;40.58;102200.13;6272550;22;20027;-88
2022/08/11 08:56:00;;;;;;;13.38;6.85;;;;;;;28.26;41.99;102196.63;6243145;22;20004;-87
2022/08/11 08:58:28;;;;;;;13.50;7.65;;;;;;;28.29;39.82;102196.41;6242746;22;20003;-82
2022/08/11 09:00:56;;;;;;;9.13;6.50;;;;;;;28.37;41.21;102187.81;6270012;22;20115;-82
2022/08/11 09:03:22;;;;;;;13.00;6.75;;;;;;;28.45;42.66;102192.53;6242196;22;20008;-82
2022/08/11 09:05:47;;;;;;;12.82;6.78;;;;;;;28.62;42.25;102190.25;6241969;22;20072;-82
2022/08/11 09:08:18;;;;;;;14.43;6.63;;;;;;;28.70;41.55;102192.31;6269472;22;20011;-81
2022/08/11 09:10:46;;;;;;;7.22;6.40;;;;;;;28.69;41.10;102201.28;6269716;22;20126;-82
2022/08/11 09:13:13;;;;;;;12.30;8.18;;;;;;;28.75;37.77;102200.84;6270359;22;20053;-81
2022/08/11 09:15:39;;;;;;;10.52;7.97;;;;;;;28.63;36.78;102197.28;6243464;22;20004;-81
2022/08/11 09:18:08;;;;;;;15.07;7.88;;;;;;;28.49;40.01;102191.31;6271696;22;20057;-82
2022/08/11 09:20:35;;;;;;;16.52;7.10;;;;;;;28.71;40.83;102193.16;6272087;22;20006;-82
2022/08/11 09:28:38;;;;;;;10.68;7.47;;;;;;;28.80;39.55;102187.97;6271688;22;20022;-82
2022/08/11 09:31:05;;;;;;;10.55;7.20;;;;;;;28.78;39.21;102187.25;6245139;22;20007;-82
2022/08/11 09:33:32;;;;;;;11.35;7.00;;;;;;;28.69;38.57;102190.63;6244286;22;20003;-82
2022/08/11 09:40:27;;;;;;;11.13;7.05;;;;;;;28.77;39.64;102184.72;6244572;22;20008;-82
2022/08/11 09:41:31;;;;;;;11.10;7.18;;;;;;;28.94;38.77;102181.53;6272397;22;20579;-81
2022/08/11 09:44:59;;;;;;;7.65;6.50;;;;;;;28.95;38.82;102177.91;6271910;22;20035;-81
2022/08/11 09:46:56;;;;;;;10.70;6.95;;;;;;;28.92;36.92;102179.00;6245395;22;20018;-81
2022/08/11 09:49:22;;;;;;;8.07;7.03;;;;;;;29.03;36.68;102178.97;6244341;22;20000;-82
2022/08/11 09:51:49;;;;;;;11.00;7.07;;;;;;;28.99;37.45;102180.22;6244734;22;20527;-82
2022/08/11 09:54:16;;;;;;;11.13;6.63;;;;;;;29.10;37.58;102175.81;6244683;22;20000;-82
2022/08/11 09:59:31;;;;;;;11.13;7.05;;;;;;;29.25;37.79;102161.22;6270782;22;20015;-82
2022/08/11 10:02:00;;;;;;;10.13;6.68;;;;;;;29.34;38.07;102165.84;6271017;22;20348;-82
2022/08/11 10:04:44;;;;;;;10.52;7.70;;;;;;;29.34;36.52;102160.50;6271312;22;20150;-82
2022/08/11 10:07:13;;;;;;;8.73;6.75;;;;;;;29.29;35.54;102166.19;6271397;22;20004;-82
2022/08/11 10:09:45;;;;;;;8.82;6.82;;;;;;;29.02;36.33;102163.06;6272645;22;20538;-82
2022/08/11 10:12:19;;;;;;;11.05;6.35;;;;;;;29.13;38.98;102162.22;6272739;22;20031;-82
2022/08/11 10:17:34;;;;;;;8.70;6.25;;;;;;;29.31;37.63;102152.69;6271457;22;20018;-82
2022/08/11 10:20:03;;;;;;;12.77;6.38;;;;;;;29.42;39.59;102150.88;6273569;22;20479;-81
2022/08/11 10:28:06;;;;;;;8.02;6.38;;;;;;;29.25;35.53;102153.22;6274037;22;20018;-82
2022/08/11 10:36:04;;;;;;;11.70;6.55;;;;;;;29.39;35.66;102150.28;6272830;22;20047;-82
2022/08/11 10:38:30;;;;;;;8.52;6.28;;;;;;;29.39;33.82;102147.63;6273775;22;20011;-82
2022/08/11 10:43:46;;;;;;;9.25;6.28;;;;;;;29.34;33.59;102144.47;6215654;22;20026;-82
2022/08/11 10:48:58;;;;;;;7.03;6.20;;;;;;;29.14;33.83;102142.56;6272043;22;20088;-81
2022/08/11 10:59:41;;;;;;;9.73;6.32;;;;;;;29.26;34.02;102128.19;6272483;22;20018;-81
2022/08/11 11:02:12;;;;;;;9.27;6.45;;;;;;;29.35;35.03;102130.97;6246038;22;20504;-81
2022/08/11 11:04:46;;;;;;;12.23;6.25;;;;;;;29.37;36.11;102131.72;6270993;22;20070;-81
2022/08/11 11:07:18;;;;;;;;;;;;;;;29.48;34.86;102130.81;6273385;22;20007;-81
2022/08/11 11:09:49;;;;;;;8.68;6.10;;;;;;;29.34;33.57;102128.44;6245550;22;19910;-81
2022/08/11 11:18:10;;;;;;;8.45;6.20;;;;;;;29.19;33.23;102122.50;6273314;22;20065;-82
2022/08/11 11:20:48;;;;;;;7.60;6.15;;;;;;;29.24;33.89;102122.97;6272840;22;20045;-82
2022/08/11 11:23:26;;;;;;;9.60;5.65;;;;;;;29.23;33.71;102121.28;6273182;22;20003;-82
2022/08/11 11:26:12;;;;;;;7.88;6.07;;;;;;;29.21;33.25;102117.03;6272655;22;20003;-81
2022/08/11 11:29:06;;;;;;;9.40;5.40;;;;;;;29.25;34.97;102114.00;6271982;22;20091;-81
2022/08/11 11:31:55;;;;;;;8.15;5.65;;;;;;;29.28;34.36;102113.72;6270167;22;20000;-81
2022/08/11 11:34:50;;;;;;;7.93;5.60;;;;;;;29.40;33.73;102109.25;6270339;22;20532;-80
2022/08/11 11:37:17;;;;;;;8.73;5.53;;;;;;;29.48;31.73;102103.25;6270670;22;20033;-81
2022/08/11 11:39:44;;;;;;;6.90;5.95;;;;;;;29.49;31.79;102107.59;6269934;22;20008;-85
2022/08/11 11:42:10;;;;;;;7.75;5.63;;;;;;;29.56;33.15;102098.09;6270184;22;20070;-86
2022/08/11 11:44:43;;;;;;;6.93;5.68;;;;;;;29.54;33.87;102098.25;6269492;22;20467;-86
2022/08/11 11:47:11;;;;;;;8.87;5.53;;;;;;;29.58;30.66;102097.00;6270968;22;20074;-86
2022/08/11 11:49:39;;;;;;;10.35;5.38;;;;;;;29.40;31.12;102094.06;6270159;22;19999;-86
2022/08/11 11:52:07;;;;;;;9.05;5.30;;;;;;;29.43;29.94;102108.97;6241501;22;20058;-86
2022/08/11 11:54:35;;;;;;;9.90;5.70;;;;;;;29.40;32.22;102099.41;6269291;22;20000;-86
2022/08/11 12:02:34;;;;;;;8.15;5.50;;;;;;;29.45;30.25;102088.31;6270913;22;20023;-86
2022/08/11 12:05:00;;;;;;;7.63;5.65;;;;;;;29.32;29.70;102096.47;6269396;22;20360;-87
2022/08/11 12:10:11;;;;;;;10.00;5.68;;;;;;;29.44;31.65;102081.28;6269747;22;20111;-86
2022/08/11 12:15:21;;;;;;;10.55;5.80;;;;;;;29.41;32.30;102073.53;6268821;22;20889;-86
2022/08/11 12:17:47;;;;;;;7.78;5.75;;;;;;;29.44;31.13;102078.59;6245493;22;20011;-86
2022/08/11 12:20:18;;;;;;;9.60;6.05;;;;;;;29.49;30.50;102076.38;6272462;22;20057;-86
2022/08/11 12:28:11;;;;;;;;;;;;;;;29.69;32.46;102064.84;6272992;22;20018;-85
2022/08/11 12:30:40;;;;;;;7.78;5.45;;;;;;;29.60;30.00;102054.97;6271778;22;19934;-85
2022/08/11 12:33:06;;;;;;;10.18;5.80;;;;;;;29.56;31.62;102058.00;6270265;22;20408;-86
2022/08/11 12:35:34;;;;;;;7.32;5.82;;;;;;;29.64;29.95;102053.72;6271474;22;20033;-85
2022/08/11 12:38:02;;;;;;;7.03;5.90;;;;;;;29.52;31.26;102046.75;6272107;22;20434;-86
2022/08/11 12:46:02;;;;;;;8.98;5.63;;;;;;;29.58;30.43;102042.69;6271298;22;20022;-86
2022/08/11 12:54:40;;;;;;;10.55;6.20;;;;;;;29.59;32.10;102026.53;6274897;22;20096;-86
2022/08/11 13:05:25;;;;;;;8.38;5.90;;;;;;;29.56;31.25;102023.25;6274479;22;20452;-85
2022/08/11 13:07:51;;;;;;;7.28;5.30;;;;;;;29.55;29.52;102026.94;6274280;22;20000;-86
2022/08/11 13:13:05;;;;;;;7.97;5.65;;;;;;;29.66;30.72;102022.38;6272104;22;20070;-85
2022/08/11 13:15:31;;;;;;;5.85;5.13;;;;;;;29.73;29.30;102015.50;6274461;22;19999;-85
2022/08/11 13:17:58;;;;;;;5.72;5.13;;;;;;;29.63;31.12;102006.56;6274031;22;20046;-85
2022/08/11 13:20:25;;;;;;;10.00;5.70;;;;;;;29.64;31.54;102007.41;6274572;22;20065;-82
2022/08/11 13:22:53;;;;;;;10.77;6.45;;;;;;;29.70;28.88;102002.41;6272551;22;20482;-81
2022/08/11 13:25:22;;;;;;;7.47;5.72;;;;;;;29.70;29.04;102006.91;6273432;22;20004;-81
2022/08/11 13:27:49;;;;;;;6.18;5.32;;;;;;;29.68;29.14;101996.34;6246549;22;20045;-82
2022/08/11 13:33:02;;;;;;;7.72;5.53;;;;;;;29.80;28.84;101997.97;6274130;22;20598;-81
2022/08/11 13:35:29;;;;;;;8.52;5.75;;;;;;;29.84;28.35;101990.50;6273699;22;20000;-82
2022/08/11 13:37:56;;;;;;;6.90;5.25;;;;;;;29.80;28.65;101994.44;6245186;22;20332;-82
2022/08/11 13:40:24;;;;;;;8.02;5.55;;;;;;;29.70;27.91;101986.34;6273528;22;20003;-82
2022/08/11 13:42:51;;;;;;;6.88;5.38;;;;;;;29.64;29.47;101984.22;6274567;22;20046;-82
2022/08/11 13:45:19;;;;;;;5.85;5.07;;;;;;;29.70;26.49;101994.38;6272972;22;20065;-82
2022/08/11 13:47:45;;;;;;;7.00;5.13;;;;;;;29.68;27.49;101982.16;6274361;22;20029;-82
2022/08/11 13:50:13;;;;;;;6.57;5.28;;;;;;;29.82;25.96;101987.16;6273410;22;20023;-82
2022/08/11 13:52:40;;;;;;;6.75;5.07;;;;;;;29.83;26.06;101975.44;6273260;22;20011;-81
2022/08/11 13:55:07;;;;;;;7.90;5.43;;;;;;;29.66;27.57;101979.59;6247128;22;19999;-81
2022/08/11 13:57:34;;;;;;;7.63;5.07;;;;;;;29.66;27.84;101976.94;6273788;22;19999;-83
2022/08/11 14:00:08;;;;;;;5.82;5.30;;;;;;;29.73;28.99;101978.09;6246766;22;20018;-82
2022/08/11 14:02:38;;;;;;;8.85;5.30;;;;;;;29.73;28.80;101977.25;6273333;22;20010;-82
2022/08/11 14:05:12;;;;;;;8.40;5.53;;;;;;;29.80;27.64;101968.56;6273969;22;20027;-82
2022/08/11 14:07:44;;;;;;;8.60;5.47;;;;;;;29.81;28.19;101972.06;6244406;22;20082;-82
2022/08/11 14:10:12;;;;;;;7.43;5.25;;;;;;;29.84;28.15;101966.44;6270512;22;20562;-82
2022/08/11 14:15:32;;;;;;;8.20;4.80;;;;;;;29.69;28.88;101970.44;6271461;22;20070;-82
2022/08/11 14:18:16;;;;;;;9.75;4.93;;;;;;;29.68;28.04;101972.31;6270708;22;20023;-82
2022/08/11 14:23:31;;;;;;;7.22;4.82;;;;;;;29.61;26.77;101965.78;6271189;22;20081;-82
2022/08/11 14:28:43;;;;;;;10.20;4.90;;;;;;;29.66;26.57;101942.16;6271316;22;20066;-82
2022/08/11 14:31:09;;;;;;;12.27;4.90;;;;;;;29.58;27.25;101942.00;6268933;22;20008;-82
2022/08/11 14:33:36;;;;;;;7.78;4.82;;;;;;;29.67;27.34;101946.53;6242023;22;20007;-82
2022/08/11 14:36:04;;;;;;;7.60;4.68;;;;;;;29.71;28.90;101942.63;6243665;22;20007;-82
2022/08/11 14:38:32;;;;;;;7.18;4.70;;;;;;;29.70;29.25;101951.59;6268752;22;19999;-82
2022/08/11 14:49:12;;;;;;;7.03;5.18;;;;;;;29.68;28.01;101945.56;6271812;22;20021;-82
2022/08/11 14:51:39;;;;;;;8.95;5.15;;;;;;;29.82;26.69;101939.03;6270117;22;20759;-82
2022/08/11 14:56:49;;;;;;;7.18;5.50;;;;;;;29.78;28.31;101934.91;6270861;22;20094;-82
2022/08/11 14:59:15;;;;;;;7.88;5.22;;;;;;;29.80;26.90;101933.81;6244285;22;20035;-82
2022/08/11 15:04:26;;;;;;;7.35;5.18;;;;;;;29.75;27.41;101932.50;6269912;22;20076;-83
2022/08/11 15:06:52;;;;;;;6.65;5.05;;;;;;;29.72;28.42;101925.59;6271386;22;20090;-82
2022/08/11 15:09:17;;;;;;;7.10;4.85;;;;;;;29.76;28.09;101908.28;6271110;22;20057;-82
2022/08/11 15:17:13;;;;;;;8.88;5.18;;;;;;;29.87;29.42;101910.03;6271325;22;20022;-82
2022/08/11 15:25:11;;;;;;;7.65;4.47;;;;;;;29.96;27.55;101897.69;6270083;22;20014;-83
2022/08/11 15:38:43;;;;;;;8.57;4.55;;;;;;;29.88;28.37;101890.34;6271214;22;20018;-82
2022/08/11 15:46:46;;;;;;;8.05;5.35;;;;;;;29.92;26.80;101883.75;6270904;22;20018;-82
2022/08/11 15:49:15;;;;;;;5.80;4.70;;;;;;;29.91;27.87;101886.53;6270439;22;20004;-82
2022/08/11 15:51:49;;;;;;;8.52;5.22;;;;;;;29.88;27.97;101879.66;6271002;22;20336;-82
2022/08/11 15:54:24;;;;;;;6.75;4.90;;;;;;;29.81;28.78;101879.34;6270811;22;20066;-82
2022/08/11 15:56:52;;;;;;;5.82;4.80;;;;;;;29.77;28.15;101875.25;6270724;22;20000;-82
2022/08/11 16:05:02;;;;;;;6.93;4.80;;;;;;;29.86;26.92;101876.25;6161047;22;20048;-82
2022/08/11 16:07:34;;;;;;;7.85;5.07;;;;;;;29.81;28.44;101874.00;6243856;22;20035;-81
2022/08/11 16:10:26;;;;;;;6.18;5.22;;;;;;;29.81;28.78;101874.00;6270395;22;20013;-82
2022/08/11 16:18:55;;;;;;;9.15;5.80;;;;;;;29.68;29.39;101860.03;6271267;22;20073;-82
2022/08/11 16:21:32;;;;;;;7.72;4.80;;;;;;;29.66;27.91;101859.31;6270159;22;20027;-82
2022/08/11 16:24:00;;;;;;;10.52;6.43;;;;;;;29.62;27.64;101857.03;6270342;22;20008;-82
2022/08/11 16:26:28;;;;;;;5.63;5.00;;;;;;;29.64;27.55;101855.91;6270621;22;20018;-82
2022/08/11 16:28:56;;;;;;;8.63;5.05;;;;;;;29.65;26.56;101857.63;6270172;22;20383;-86
2022/08/11 16:31:22;;;;;;;7.45;4.72;;;;;;;29.58;28.52;101853.78;6243368;22;19999;-86
2022/08/11 16:33:50;;;;;;;6.80;4.60;;;;;;;29.50;29.04;101853.63;6270644;22;19999;-87
2022/08/11 16:39:03;;;;;;;10.75;5.13;;;;;;;29.49;27.30;101859.09;6269745;22;20356;-86
2022/08/11 16:47:04;;;;;;;7.18;4.50;;;;;;;29.46;26.39;101846.84;6269975;22;20049;-86
2022/08/11 16:49:37;;;;;;;7.05;4.90;;;;;;;29.51;26.96;101843.78;6270092;22;20029;-86
2022/08/11 16:52:06;;;;;;;6.97;4.40;;;;;;;29.55;26.16;101845.22;6270365;22;20008;-86
2022/08/11 16:54:33;;;;;;;10.23;4.50;;;;;;;29.52;28.15;101840.13;6269944;22;20077;-86
2022/08/11 16:59:49;;;;;;;8.32;4.60;;;;;;;29.41;28.04;101841.91;6270298;22;20072;-86